createdAt,value
2023-02-11T00:05:19.061Z,99647.00
2023-02-11T00:10:40.600Z,99652.00
2023-02-11T00:16:10.839Z,99650.00
2023-02-11T00:21:33.000Z,99653.00
2023-02-11T00:26:55.331Z,99647.00
2023-02-11T00:32:17.635Z,99638.00
2023-02-11T00:37:39.161Z,99633.00
2023-02-11T00:43:00.655Z,99612.00
2023-02-11T00:48:22.242Z,99604.00
2023-02-11T00:53:43.754Z,99591.00
2023-02-11T00:59:05.151Z,99575.00
2023-02-11T01:04:26.802Z,99561.00
2023-02-11T01:09:48.270Z,99533.00
2023-02-11T01:15:12.221Z,99539.00
2023-02-11T01:20:33.469Z,99540.00
2023-02-11T01:25:55.273Z,99554.00
2023-02-11T01:31:16.586Z,99572.00
2023-02-11T01:36:38.498Z,99544.00
2023-02-11T01:42:00.026Z,99532.00
2023-02-11T01:47:22.177Z,99519.00
2023-02-11T01:52:46.410Z,99519.00
2023-02-11T01:58:10.061Z,99508.00
2023-02-11T02:03:33.791Z,99511.00
2023-02-11T02:09:01.271Z,99517.00
2023-02-11T02:14:24.033Z,99513.00
2023-02-11T02:20:10.833Z,99506.00
2023-02-11T02:26:01.770Z,99516.00
2023-02-11T02:31:37.976Z,99511.00
2023-02-11T02:37:08.386Z,99506.00
2023-02-11T02:42:30.568Z,99478.00
2023-02-11T02:47:52.176Z,99500.00
2023-02-11T02:53:18.291Z,99484.00
2023-02-11T02:59:15.116Z,99486.00
2023-02-11T03:04:50.968Z,99481.00
2023-02-11T03:10:24.445Z,99480.00
2023-02-11T03:15:50.419Z,99470.00
2023-02-11T03:21:14.196Z,99444.00
2023-02-11T03:26:44.248Z,99438.00
2023-02-11T03:32:42.213Z,99447.00
2023-02-11T03:38:15.589Z,99448.00
2023-02-11T03:43:45.241Z,99437.00
2023-02-11T03:49:12.336Z,99432.00
2023-02-11T03:54:34.187Z,99447.00
2023-02-11T03:59:59.815Z,99449.00
2023-02-11T04:05:21.836Z,99439.00
2023-02-11T04:10:42.987Z,99435.00
2023-02-11T04:16:04.658Z,99420.00
2023-02-11T04:21:26.690Z,99407.00
2023-02-11T04:26:48.358Z,99408.00
2023-02-11T04:32:11.491Z,99391.00
2023-02-11T04:37:34.503Z,99403.00
2023-02-11T04:42:56.107Z,99398.00
2023-02-11T04:48:18.058Z,99409.00
2023-02-11T04:53:39.308Z,99396.00
2023-02-11T04:59:03.992Z,99419.00
2023-02-11T05:04:25.693Z,99428.00
2023-02-11T05:09:47.233Z,99445.00
2023-02-11T05:15:08.886Z,99430.00
2023-02-11T05:20:30.469Z,99430.00
2023-02-11T05:25:52.302Z,99427.00
2023-02-11T05:31:14.972Z,99425.00
2023-02-11T05:36:36.261Z,99432.00
2023-02-11T05:41:57.772Z,99428.00
2023-02-11T05:47:19.316Z,99426.00
2023-02-11T05:52:40.918Z,99417.00
2023-02-11T05:58:02.322Z,99412.00
2023-02-11T06:03:24.022Z,99422.00
2023-02-11T06:08:45.514Z,99415.00
2023-02-11T06:14:07.338Z,99415.00
2023-02-11T06:19:29.060Z,99413.00
2023-02-11T06:25:01.307Z,99424.00
2023-02-11T06:30:22.758Z,99432.00
2023-02-11T06:35:44.397Z,99430.00
2023-02-11T06:41:05.722Z,99429.00
2023-02-11T06:46:27.265Z,99417.00
2023-02-11T06:51:48.568Z,99414.00
2023-02-11T06:57:10.034Z,99406.00
2023-02-11T07:02:31.732Z,99398.00
2023-02-11T07:07:52.853Z,99416.00
2023-02-11T07:13:14.467Z,99417.00
2023-02-11T07:18:36.351Z,99406.00
2023-02-11T07:23:57.553Z,99410.00
2023-02-11T07:29:18.909Z,99427.00
2023-02-11T07:34:40.477Z,99421.00
2023-02-11T07:40:01.968Z,99425.00
2023-02-11T07:45:25.462Z,99416.00
2023-02-11T07:50:47.779Z,99412.00
2023-02-11T07:56:10.376Z,99421.00
2023-02-11T08:01:32.213Z,99417.00
2023-02-11T08:06:58.868Z,99417.00
2023-02-11T08:12:20.317Z,99426.00
2023-02-11T08:17:41.791Z,99418.00
2023-02-11T08:23:03.262Z,99427.00
2023-02-11T08:28:24.920Z,99423.00
2023-02-11T08:33:46.955Z,99406.00
2023-02-11T08:39:20.113Z,99410.00
2023-02-11T08:44:42.275Z,99423.00
2023-02-11T08:50:04.978Z,99419.00
2023-02-11T08:55:26.285Z,99407.00
2023-02-11T09:00:49.707Z,99423.00
2023-02-11T09:06:14.052Z,99427.00
2023-02-11T09:11:36.678Z,99422.00
2023-02-11T09:16:58.195Z,99432.00
2023-02-11T09:22:19.645Z,99410.00
2023-02-11T09:27:40.934Z,99430.00
2023-02-11T09:33:02.544Z,99452.00
2023-02-11T09:38:24.030Z,99454.00
2023-02-11T09:43:48.284Z,99461.00
2023-02-11T09:49:23.018Z,99466.00
2023-02-11T09:55:00.440Z,99477.00
2023-02-11T10:00:35.174Z,99482.00
2023-02-11T10:06:09.804Z,99487.00
2023-02-11T10:11:36.290Z,99477.00
2023-02-11T10:17:06.454Z,99473.00
2023-02-11T10:22:33.617Z,99468.00
2023-02-11T10:27:58.223Z,99462.00
2023-02-11T10:33:51.651Z,99456.00
2023-02-11T10:39:17.430Z,99454.00
2023-02-11T10:44:43.166Z,99444.00
2023-02-11T10:50:22.394Z,99433.00
2023-02-11T10:56:19.944Z,99443.00
2023-02-11T11:01:51.973Z,99434.00
2023-02-11T11:07:21.510Z,99448.00
2023-02-11T11:12:45.861Z,99466.00
2023-02-11T11:18:22.470Z,99453.00
2023-02-11T11:23:51.289Z,99448.00
2023-02-11T11:29:48.790Z,99440.00
2023-02-11T11:35:27.867Z,99443.00
2023-02-11T11:41:26.245Z,99438.00
2023-02-11T11:46:51.347Z,99439.00
2023-02-11T11:52:31.358Z,99436.00
2023-02-11T11:57:53.050Z,99441.00
2023-02-11T12:03:30.353Z,99426.00
2023-02-11T12:09:03.705Z,99433.00
2023-02-11T12:15:04.309Z,99434.00
2023-02-11T12:20:34.430Z,99451.00
2023-02-11T12:26:19.318Z,99445.00
2023-02-11T12:31:47.852Z,99443.00
2023-02-11T12:37:23.941Z,99445.00
2023-02-11T12:43:21.722Z,99447.00
2023-02-11T12:49:08.227Z,99453.00
2023-02-11T12:54:47.711Z,99437.00
2023-02-11T13:00:22.302Z,99436.00
2023-02-11T13:05:43.802Z,99425.00
2023-02-11T13:11:14.321Z,99428.00
2023-02-11T13:16:44.234Z,99439.00
2023-02-11T13:22:20.497Z,99432.00
2023-02-11T13:27:58.617Z,99428.00
2023-02-11T13:33:45.117Z,99429.00
2023-02-11T13:39:18.999Z,99431.00
2023-02-11T13:44:40.464Z,99432.00
2023-02-11T13:50:06.354Z,99420.00
2023-02-11T13:55:28.737Z,99426.00
2023-02-11T14:00:51.939Z,99423.00
2023-02-11T14:06:39.079Z,99417.00
2023-02-11T14:12:24.143Z,99423.00
2023-02-11T14:17:45.839Z,99415.00
2023-02-11T14:23:20.336Z,99409.00
2023-02-11T14:28:46.939Z,99422.00
2023-02-11T14:34:32.181Z,99431.00
2023-02-11T14:40:23.184Z,99427.00
2023-02-11T14:45:50.092Z,99431.00
2023-02-11T14:51:17.496Z,99436.00
2023-02-11T14:56:39.869Z,99435.00
2023-02-11T15:02:01.716Z,99439.00
2023-02-11T15:07:23.443Z,99436.00
2023-02-11T15:12:49.969Z,99447.00
2023-02-11T15:18:22.677Z,99445.00
2023-02-11T15:24:06.604Z,99446.00
2023-02-11T15:29:35.804Z,99457.00
2023-02-11T15:34:58.570Z,99458.00
2023-02-11T15:40:23.684Z,99456.00
2023-02-11T15:46:00.250Z,99459.00
2023-02-11T15:51:35.607Z,99460.00
2023-02-11T15:57:03.796Z,99462.00
2023-02-11T16:02:29.031Z,99457.00
2023-02-11T16:07:51.513Z,99458.00
2023-02-11T16:13:12.643Z,99458.00
2023-02-11T16:19:04.801Z,99460.00
2023-02-11T16:24:28.591Z,99476.00
2023-02-11T16:29:51.374Z,99478.00
2023-02-11T16:35:13.827Z,99482.00
2023-02-11T16:40:35.843Z,99485.00
2023-02-11T16:45:58.384Z,99487.00
2023-02-11T16:51:19.719Z,99500.00
2023-02-11T16:56:41.723Z,99496.00
2023-02-11T17:02:03.408Z,99513.00
2023-02-11T17:07:25.307Z,99510.00
2023-02-11T17:12:48.243Z,99512.00
2023-02-11T17:18:16.986Z,99510.00
2023-02-11T17:23:38.844Z,99525.00
2023-02-11T17:29:00.249Z,99528.00
2023-02-11T17:34:22.778Z,99531.00
2023-02-11T17:39:44.803Z,99533.00
2023-02-11T17:45:07.009Z,99541.00
2023-02-11T17:50:29.508Z,99519.00
2023-02-11T17:55:51.288Z,99543.00
2023-02-11T18:01:13.696Z,99552.00
2023-02-11T18:06:35.393Z,99542.00
2023-02-11T18:11:58.462Z,99527.00
2023-02-11T18:17:20.764Z,99527.00
2023-02-11T18:22:44.297Z,99532.00
2023-02-11T18:28:05.527Z,99523.00
2023-02-11T18:33:27.736Z,99547.00
2023-02-11T18:38:49.554Z,99551.00
2023-02-11T18:44:14.283Z,99544.00
2023-02-11T18:49:36.342Z,99554.00
2023-02-11T18:54:58.017Z,99566.00
2023-02-11T19:00:20.895Z,99568.00
2023-02-11T19:05:48.066Z,99579.00
2023-02-11T19:11:09.259Z,99578.00
2023-02-11T19:16:30.639Z,99588.00
2023-02-11T19:21:52.251Z,99587.00
2023-02-11T19:27:13.866Z,99589.00
2023-02-11T19:32:35.370Z,99605.00
2023-02-11T19:37:56.952Z,99620.00
2023-02-11T19:43:18.128Z,99624.00
2023-02-11T19:48:39.381Z,99624.00
2023-02-11T19:54:00.782Z,99640.00
2023-02-11T19:59:22.309Z,99642.00
2023-02-11T20:04:43.961Z,99651.00
2023-02-11T20:10:06.234Z,99647.00
2023-02-11T20:15:27.798Z,99656.00
2023-02-11T20:20:49.275Z,99672.00
2023-02-11T20:26:13.905Z,99679.00
2023-02-11T20:31:35.927Z,99694.00
2023-02-11T20:36:57.358Z,99697.00
2023-02-11T20:42:18.469Z,99686.00
2023-02-11T20:47:40.052Z,99682.00
2023-02-11T20:53:01.558Z,99686.00
2023-02-11T20:58:23.195Z,99681.00
2023-02-11T21:04:02.591Z,99679.00
2023-02-11T21:09:27.239Z,99678.00
2023-02-11T21:14:48.795Z,99680.00
2023-02-11T21:20:10.363Z,99688.00
2023-02-11T21:25:31.819Z,99699.00
2023-02-11T21:30:56.223Z,99701.00
2023-02-11T21:36:18.103Z,99695.00
2023-02-11T21:41:39.826Z,99705.00
2023-02-11T21:47:01.318Z,99709.00
2023-02-11T21:52:23.079Z,99720.00
2023-02-11T21:57:45.923Z,99721.00
2023-02-11T22:03:07.465Z,99729.00
2023-02-11T22:08:31.531Z,99730.00
2023-02-11T22:13:57.880Z,99746.00
2023-02-11T22:19:19.137Z,99740.00
2023-02-11T22:24:41.812Z,99752.00
2023-02-11T22:30:03.941Z,99756.00
2023-02-11T22:35:25.346Z,99757.00
2023-02-11T22:40:46.803Z,99757.00
2023-02-11T22:46:08.946Z,99761.00
2023-02-11T22:51:31.329Z,99767.00
2023-02-11T22:56:53.366Z,99772.00
2023-02-11T23:02:15.031Z,99782.00
2023-02-11T23:07:36.493Z,99785.00
2023-02-11T23:12:57.644Z,99791.00
2023-02-11T23:18:19.227Z,99782.00
2023-02-11T23:23:40.770Z,99787.00
2023-02-11T23:29:02.470Z,99791.00
2023-02-11T23:34:25.659Z,99801.00
2023-02-11T23:39:46.830Z,99794.00
2023-02-11T23:45:09.151Z,99792.00
2023-02-11T23:50:30.719Z,99793.00
2023-02-11T23:55:52.285Z,99799.00
